Time;durP1;ratioP1;P1;durP2;ratioP2;P2;SDS_P1;SDS_P2;PMS_P1;PMS_P2;Temp;Humidity;BMP_temperature;BMP_pressure;BME280_temperature;BME280_humidity;BME280_pressure;Samples;Min_cycle;Max_cycle;Signal;HPM_P1;HPM_P2
2023/07/19 00:00:33;;;;;;;3.60;1.80;;;13.20;1.00;;;;;;8267484;28;20425;-68
2023/07/19 00:04:34;;;;;;;2.03;1.50;;;13.20;1.00;;;;;;8263658;28;20241;-67
2023/07/19 00:08:36;;;;;;;3.63;1.50;;;13.20;1.00;;;;;;8265654;28;20197;-65
2023/07/19 00:12:37;;;;;;;2.43;1.90;;;13.10;1.00;;;;;;8265177;28;20190;-64
2023/07/19 00:16:38;;;;;;;1.93;1.43;;;13.10;1.00;;;;;;8267507;28;20233;-64
2023/07/19 00:20:41;;;;;;;3.07;1.50;;;13.10;1.00;;;;;;8267663;28;20189;-67
2023/07/19 00:24:42;;;;;;;2.93;1.23;;;13.10;1.00;;;;;;8270979;28;20194;-67
2023/07/19 00:28:43;;;;;;;1.73;1.50;;;13.10;1.00;;;;;;8276186;28;20261;-68
2023/07/19 00:32:43;;;;;;;1.60;1.27;;;13.10;1.00;;;;;;8266952;28;20189;-65
2023/07/19 00:36:44;;;;;;;1.83;1.33;;;13.10;1.00;;;;;;8274505;28;20229;-64
2023/07/19 00:40:45;;;;;;;2.80;1.30;;;13.00;1.00;;;;;;8273667;28;20241;-63
2023/07/19 00:44:52;;;;;;;1.60;1.50;;;12.80;1.00;;;;;;8271545;28;20197;-63
2023/07/19 00:48:57;;;;;;;2.20;1.53;;;12.70;1.00;;;;;;8273721;28;20273;-65
2023/07/19 00:52:57;;;;;;;1.90;1.40;;;12.60;1.00;;;;;;8273829;28;20195;-64
2023/07/19 00:56:59;;;;;;;2.10;1.60;;;12.50;1.00;;;;;;8287724;28;20251;-66
2023/07/19 01:01:01;;;;;;;2.87;1.60;;;12.40;1.00;;;;;;8271088;28;20186;-67
2023/07/19 01:05:05;;;;;;;1.87;1.40;;;12.30;1.00;;;;;;8272805;28;20228;-68
2023/07/19 01:09:06;;;;;;;2.00;1.43;;;12.20;1.00;;;;;;8273539;28;20197;-68
2023/07/19 01:13:09;;;;;;;2.80;1.60;;;12.20;1.00;;;;;;8270331;28;20195;-68
2023/07/19 01:17:10;;;;;;;2.27;1.53;;;12.10;1.00;;;;;;8274435;28;20215;-69
2023/07/19 01:21:11;;;;;;;2.37;1.90;;;12.10;1.00;;;;;;8282610;28;20183;-68
2023/07/19 01:25:12;;;;;;;2.83;1.80;;;12.00;1.00;;;;;;8277052;28;20196;-67
2023/07/19 01:29:13;;;;;;;2.57;2.00;;;12.00;19.80;;;;;;8276983;28;20220;-64
2023/07/19 01:33:14;;;;;;;2.33;1.80;;;11.90;38.10;;;;;;8277686;28;20204;-64
2023/07/19 01:37:15;;;;;;;2.23;1.93;;;11.80;49.80;;;;;;8271796;28;20207;-64
2023/07/19 01:41:20;;;;;;;4.20;1.57;;;11.70;59.00;;;;;;8275699;28;20187;-67
2023/07/19 01:45:20;;;;;;;2.30;1.50;;;11.60;70.70;;;;;;8272868;28;20176;-67
2023/07/19 01:49:25;;;;;;;3.77;1.80;;;11.50;93.30;;;;;;8274135;28;20188;-66
2023/07/19 01:53:25;;;;;;;2.13;1.80;;;11.40;95.30;;;;;;8275826;28;20198;-67
2023/07/19 01:57:26;;;;;;;1.70;1.60;;;11.40;98.90;;;;;;8275087;28;20294;-67
2023/07/19 02:01:27;;;;;;;2.57;1.50;;;11.20;99.90;;;;;;8275417;28;20238;-67
2023/07/19 02:05:28;;;;;;;1.93;1.73;;;11.20;99.90;;;;;;8268001;28;20280;-67
2023/07/19 02:09:29;;;;;;;3.40;1.63;;;11.10;99.90;;;;;;8273120;28;20300;-67
2023/07/19 02:13:30;;;;;;;1.70;1.60;;;11.00;99.90;;;;;;8272295;28;20198;-67
2023/07/19 02:17:33;;;;;;;3.30;1.70;;;10.90;99.90;;;;;;8267639;28;20237;-67
2023/07/19 02:21:34;;;;;;;2.53;1.80;;;10.90;99.90;;;;;;8268398;28;20183;-67
2023/07/19 02:25:35;;;;;;;1.87;1.63;;;10.80;99.90;;;;;;8272012;28;20191;-68
2023/07/19 02:29:36;;;;;;;2.07;1.87;;;10.80;99.90;;;;;;8272150;28;20187;-67
2023/07/19 02:33:39;;;;;;;2.43;1.80;;;10.70;99.90;;;;;;8273996;28;20190;-67
2023/07/19 02:37:40;;;;;;;2.70;1.90;;;10.70;99.90;;;;;;8268734;28;20214;-64
2023/07/19 02:41:41;;;;;;;2.50;1.80;;;10.60;99.90;;;;;;8267284;28;20294;-64
2023/07/19 02:45:42;;;;;;;2.43;1.63;;;10.50;99.90;;;;;;8274717;28;20282;-65
2023/07/19 02:49:43;;;;;;;2.13;1.90;;;10.40;99.90;;;;;;8269215;28;20194;-64
2023/07/19 02:53:44;;;;;;;2.60;1.90;;;10.40;99.90;;;;;;8270612;28;20188;-63
2023/07/19 02:57:45;;;;;;;2.97;2.00;;;10.20;99.90;;;;;;8264776;28;20292;-64
2023/07/19 03:01:46;;;;;;;2.60;2.00;;;10.20;99.90;;;;;;8269895;28;20229;-65
2023/07/19 03:05:47;;;;;;;3.47;2.47;;;10.20;99.90;;;;;;8267813;28;20219;-64
2023/07/19 03:09:48;;;;;;;3.07;2.30;;;10.20;99.90;;;;;;8271415;28;20191;-64
2023/07/19 03:13:49;;;;;;;3.63;2.40;;;10.30;99.90;;;;;;8268374;28;20222;-63
2023/07/19 03:17:53;;;;;;;3.37;2.10;;;10.30;99.90;;;;;;8273367;28;20219;-62
2023/07/19 03:21:54;;;;;;;1.93;1.60;;;10.30;99.90;;;;;;8268539;28;20186;-62
2023/07/19 03:25:57;;;;;;;1.97;1.73;;;10.30;99.90;;;;;;8267618;28;20187;-64
2023/07/19 03:30:06;;;;;;;2.50;1.87;;;10.30;99.90;;;;;;8267249;28;20190;-61
2023/07/19 03:34:14;;;;;;;2.20;1.67;;;10.50;99.90;;;;;;8269640;28;20184;-63
2023/07/19 03:38:15;;;;;;;2.97;2.03;;;10.90;99.90;;;;;;8266887;28;20218;-66
2023/07/19 03:42:16;;;;;;;3.40;2.17;;;11.50;99.90;;;;;;8268732;28;20190;-67
2023/07/19 03:46:20;;;;;;;5.60;2.50;;;12.10;99.90;;;;;;8268011;28;20188;-67
2023/07/19 03:50:21;;;;;;;2.77;2.07;;;12.50;83.30;;;;;;8276211;28;20265;-67
2023/07/19 03:54:22;;;;;;;3.47;2.00;;;13.10;1.00;;;;;;8264426;28;20185;-67
2023/07/19 03:58:24;;;;;;;2.73;1.70;;;13.80;1.00;;;;;;8270962;28;20218;-66
2023/07/19 04:02:25;;;;;;;2.50;1.80;;;14.40;1.00;;;;;;8272830;28;20198;-67
2023/07/19 04:06:26;;;;;;;2.77;1.50;;;15.20;1.00;;;;;;8271332;28;20222;-68
2023/07/19 04:10:27;;;;;;;4.23;1.73;;;16.10;1.00;;;;;;8274820;28;20199;-66
2023/07/19 04:14:28;;;;;;;3.93;2.27;;;16.80;1.00;;;;;;8268436;28;20194;-66
2023/07/19 04:18:29;;;;;;;2.93;1.97;;;17.50;1.00;;;;;;8272682;28;20211;-67
2023/07/19 04:22:30;;;;;;;4.10;1.90;;;18.00;1.00;;;;;;8262666;28;20198;-68
2023/07/19 04:26:31;;;;;;;3.33;2.00;;;18.70;1.00;;;;;;8261784;28;20202;-68
2023/07/19 04:30:32;;;;;;;2.37;1.83;;;19.20;1.00;;;;;;8274447;28;20193;-66
2023/07/19 04:34:32;;;;;;;4.30;2.20;;;19.80;1.00;;;;;;8262634;28;20195;-67
2023/07/19 04:38:33;;;;;;;6.60;2.37;;;20.30;99.90;;;;;;8272291;28;20276;-69
2023/07/19 04:42:34;;;;;;;4.77;2.50;;;20.20;99.90;;;;;;8261657;28;20198;-68
2023/07/19 04:46:36;;;;;;;5.27;2.60;;;20.00;99.90;;;;;;8266665;28;20317;-67
2023/07/19 04:50:37;;;;;;;3.43;2.17;;;19.80;99.90;;;;;;8260529;28;20320;-67
2023/07/19 04:54:38;;;;;;;3.13;2.47;;;19.60;99.90;;;;;;8257457;28;20200;-68
2023/07/19 04:58:38;;;;;;;4.87;2.57;;;19.60;1.00;;;;;;8256758;28;20211;-68
2023/07/19 05:02:40;;;;;;;3.67;2.87;;;19.20;1.00;;;;;;8254061;28;20196;-69
2023/07/19 05:06:41;;;;;;;4.43;2.97;;;19.40;1.00;;;;;;8262460;28;20235;-67
2023/07/19 05:10:41;;;;;;;6.43;3.90;;;20.00;1.00;;;;;;8255995;28;20200;-69
2023/07/19 05:14:42;;;;;;;4.60;3.10;;;20.10;1.00;;;;;;8252935;28;20233;-68
2023/07/19 05:18:44;;;;;;;4.53;3.80;;;19.80;1.00;;;;;;8248823;28;20234;-68
2023/07/19 05:22:49;;;;;;;3.97;3.37;;;19.50;1.00;;;;;;8261125;28;20207;-68
2023/07/19 05:26:50;;;;;;;4.50;3.57;;;19.20;1.00;;;;;;8262432;28;20250;-68
2023/07/19 05:30:51;;;;;;;5.87;3.73;;;18.90;1.00;;;;;;8259072;28;20205;-69
2023/07/19 05:34:51;;;;;;;5.17;3.10;;;18.60;1.00;;;;;;8262931;28;20219;-68
2023/07/19 05:38:53;;;;;;;3.73;2.60;;;18.50;1.00;;;;;;8256346;28;20219;-68
2023/07/19 05:42:53;;;;;;;3.97;3.00;;;18.50;1.00;;;;;;8264058;28;20253;-67
2023/07/19 05:46:54;;;;;;;6.80;2.70;;;18.60;1.00;;;;;;8262670;28;20265;-68
2023/07/19 05:50:55;;;;;;;4.63;2.80;;;18.70;1.00;;;;;;8260682;28;20197;-68
2023/07/19 05:54:56;;;;;;;4.07;2.50;;;18.80;1.00;;;;;;8258210;28;20245;-67
2023/07/19 05:58:57;;;;;;;5.07;2.70;;;19.00;1.00;;;;;;8262926;28;20218;-68
2023/07/19 06:02:57;;;;;;;5.43;2.77;;;19.30;1.00;;;;;;8263589;28;20365;-68
2023/07/19 06:06:58;;;;;;;4.93;2.87;;;19.60;1.00;;;;;;8286282;28;20206;-67
2023/07/19 06:10:59;;;;;;;6.53;2.63;;;20.10;1.00;;;;;;8274564;28;20187;-66
2023/07/19 06:15:00;;;;;;;4.90;2.60;;;20.40;1.00;;;;;;8269507;28;20199;-66
2023/07/19 06:19:01;;;;;;;8.80;2.70;;;20.60;1.00;;;;;;8272449;28;20369;-66
2023/07/19 06:23:02;;;;;;;3.57;2.30;;;20.60;1.00;;;;;;8270224;28;20191;-68
2023/07/19 06:27:03;;;;;;;4.67;2.13;;;20.70;1.00;;;;;;8257711;28;20191;-69
2023/07/19 06:31:04;;;;;;;4.57;3.20;;;20.80;99.90;;;;;;8257765;28;20191;-66
2023/07/19 06:35:11;;;;;;;3.63;2.50;;;20.80;99.90;;;;;;8265091;28;20191;-67
2023/07/19 06:39:12;;;;;;;3.53;1.67;;;20.90;99.90;;;;;;8264319;28;20215;-69
2023/07/19 06:43:13;;;;;;;4.37;1.90;;;21.00;99.90;;;;;;8263648;28;20280;-65
2023/07/19 06:47:15;;;;;;;3.10;1.90;;;21.20;99.90;;;;;;8264387;28;20191;-69
2023/07/19 06:51:17;;;;;;;4.87;1.80;;;21.30;99.90;;;;;;8267414;28;20191;-68
2023/07/19 06:55:18;;;;;;;3.70;1.60;;;21.40;99.90;;;;;;8263989;28;20195;-67
2023/07/19 06:59:19;;;;;;;3.40;1.80;;;21.50;99.90;;;;;;8260654;28;20314;-68
2023/07/19 07:03:23;;;;;;;2.07;1.50;;;21.50;99.90;;;;;;8257324;28;20207;-68
2023/07/19 07:07:24;;;;;;;2.37;1.57;;;21.70;99.90;;;;;;8261152;28;20203;-67
2023/07/19 07:11:25;;;;;;;3.20;1.67;;;21.80;99.90;;;;;;8277648;28;20238;-68
2023/07/19 07:15:26;;;;;;;3.47;1.77;;;22.00;99.90;;;;;;8263997;28;20199;-68
2023/07/19 07:19:27;;;;;;;3.57;1.93;;;22.20;99.90;;;;;;8271237;28;20207;-68
2023/07/19 07:23:28;;;;;;;2.03;1.63;;;22.40;99.90;;;;;;8264719;28;20187;-66
2023/07/19 07:27:34;;;;;;;3.10;1.67;;;22.40;99.90;;;;;;8270415;28;20242;-67
2023/07/19 07:31:35;;;;;;;3.23;2.10;;;22.50;99.90;;;;;;8273852;28;20196;-66
2023/07/19 07:35:36;;;;;;;3.10;2.20;;;22.70;99.90;;;;;;8263087;28;20187;-67
2023/07/19 07:39:37;;;;;;;3.50;1.57;;;22.90;99.90;;;;;;8265749;28;20214;-69
2023/07/19 07:43:38;;;;;;;9.13;3.30;;;23.10;99.90;;;;;;8263451;28;20187;-68
2023/07/19 07:47:39;;;;;;;3.60;1.70;;;23.30;99.90;;;;;;8266497;28;20199;-68
2023/07/19 07:51:40;;;;;;;4.03;1.70;;;23.40;99.90;;;;;;8267479;28;20269;-68
2023/07/19 07:55:44;;;;;;;2.67;1.07;;;23.50;99.90;;;;;;8263584;28;20198;-68
2023/07/19 07:59:45;;;;;;;1.77;1.10;;;23.70;99.90;;;;;;8266555;28;20283;-67
2023/07/19 08:03:46;;;;;;;2.03;1.60;;;23.70;99.90;;;;;;8259358;28;20213;-69
2023/07/19 08:07:47;;;;;;;3.43;1.40;;;23.90;99.90;;;;;;8265504;28;20210;-69
2023/07/19 08:11:48;;;;;;;2.47;1.40;;;23.90;99.90;;;;;;8260976;28;20282;-69
2023/07/19 08:15:49;;;;;;;5.23;1.70;;;24.00;99.90;;;;;;8265164;28;20187;-67
2023/07/19 08:19:50;;;;;;;2.80;1.63;;;24.30;99.90;;;;;;8261619;28;20286;-68
2023/07/19 08:23:55;;;;;;;2.63;1.30;;;24.40;99.90;;;;;;8266750;28;20191;-69
2023/07/19 08:27:56;;;;;;;1.80;1.40;;;24.40;99.90;;;;;;8262708;28;20272;-67
2023/07/19 08:31:57;;;;;;;2.00;1.50;;;24.60;99.90;;;;;;8269487;28;20246;-65
2023/07/19 08:35:59;;;;;;;2.90;1.60;;;24.90;99.90;;;;;;8285757;28;20206;-68
2023/07/19 08:39:59;;;;;;;1.70;1.40;;;25.00;99.90;;;;;;8268497;28;20368;-66
2023/07/19 08:44:00;;;;;;;4.87;2.00;;;25.00;99.90;;;;;;8266273;28;20183;-68
2023/07/19 08:48:01;;;;;;;2.90;1.70;;;24.90;99.90;;;;;;8263887;28;20187;-68
2023/07/19 08:52:12;;;;;;;2.23;1.47;;;25.00;99.90;;;;;;8265961;28;20187;-68
2023/07/19 08:56:16;;;;;;;4.03;1.73;;;25.20;99.90;;;;;;8272188;28;20225;-67
2023/07/19 09:00:18;;;;;;;4.30;1.60;;;25.30;99.90;;;;;;8263892;28;20191;-70
2023/07/19 09:04:19;;;;;;;3.93;1.40;;;25.30;99.90;;;;;;8265871;28;20241;-71
2023/07/19 09:08:20;;;;;;;2.07;1.43;;;25.40;99.90;;;;;;8263135;28;20198;-66
2023/07/19 09:12:25;;;;;;;4.53;1.90;;;25.50;99.90;;;;;;8268346;28;20261;-69
2023/07/19 09:16:31;;;;;;;4.50;1.50;;;25.50;99.90;;;;;;8264000;28;20187;-71
2023/07/19 09:20:37;;;;;;;2.20;1.50;;;25.80;99.90;;;;;;8265488;28;20218;-72
2023/07/19 09:24:57;;;;;;;1.73;1.30;;;26.00;99.90;;;;;;8260340;28;20187;-66
2023/07/19 09:28:58;;;;;;;2.10;1.47;;;26.20;99.90;;;;;;8260293;28;20203;-68
2023/07/19 09:33:00;;;;;;;4.07;1.70;;;26.20;99.90;;;;;;8265442;28;20194;-67
2023/07/19 09:37:02;;;;;;;2.57;1.50;;;26.00;99.90;;;;;;8263942;28;20246;-68
2023/07/19 09:41:03;;;;;;;3.80;1.60;;;26.00;99.90;;;;;;8271632;28;20218;-69
2023/07/19 09:45:08;;;;;;;2.22;1.38;;;26.50;99.90;;;;;;8265415;28;20183;-69
2023/07/19 09:49:13;;;;;;;2.90;1.48;;;26.90;99.90;;;;;;8273494;28;20199;-69
2023/07/19 09:53:15;;;;;;;2.53;1.30;;;27.40;99.90;;;;;;8266260;28;20195;-67
2023/07/19 09:57:16;;;;;;;2.25;1.45;;;27.80;99.90;;;;;;8264173;28;20203;-68
2023/07/19 10:01:18;;;;;;;3.58;1.60;;;28.20;99.90;;;;;;8266591;28;20210;-68
2023/07/19 10:05:29;;;;;;;3.08;1.30;;;28.40;99.90;;;;;;8267020;28;20237;-69
2023/07/19 10:09:37;;;;;;;2.13;1.30;;;28.30;99.90;;;;;;8268336;28;20183;-67
2023/07/19 10:13:58;;;;;;;4.93;1.70;;;28.20;99.90;;;;;;8267813;28;20195;-68
2023/07/19 10:17:59;;;;;;;4.07;1.60;;;28.50;99.90;;;;;;8272556;28;20273;-68
2023/07/19 10:22:05;;;;;;;2.55;1.20;;;28.70;99.90;;;;;;8266843;28;20187;-67
2023/07/19 10:26:06;;;;;;;3.30;1.50;;;28.90;99.90;;;;;;8269214;28;20190;-67
2023/07/19 10:30:08;;;;;;;1.77;1.23;;;29.30;99.90;;;;;;8271101;28;20254;-67
2023/07/19 10:34:09;;;;;;;1.50;1.40;;;29.70;99.90;;;;;;8270042;28;20176;-66
2023/07/19 10:38:17;;;;;;;4.88;1.63;;;29.50;99.90;;;;;;8273282;28;20207;-70
2023/07/19 10:42:18;;;;;;;2.67;1.50;;;29.20;99.90;;;;;;8267145;28;20192;-71
2023/07/19 10:46:19;;;;;;;1.65;1.17;;;28.50;99.90;;;;;;8268298;28;20195;-66
2023/07/19 10:50:24;;;;;;;2.17;1.50;;;27.70;99.90;;;;;;8264522;28;20183;-67
2023/07/19 10:54:26;;;;;;;1.50;1.00;;;27.70;99.90;;;;;;8269441;28;20313;-68
2023/07/19 10:58:27;;;;;;;2.65;1.08;;;27.80;99.90;;;;;;8264673;28;20279;-67
2023/07/19 11:02:28;;;;;;;1.35;1.13;;;28.10;99.90;;;;;;8272746;28;20188;-66
2023/07/19 11:06:30;;;;;;;2.35;1.10;;;28.40;99.90;;;;;;8266193;28;20219;-66
2023/07/19 11:10:30;;;;;;;3.47;1.50;;;28.60;99.90;;;;;;8268480;28;20259;-67
2023/07/19 11:14:33;;;;;;;2.22;1.20;;;29.00;99.90;;;;;;8266173;28;20198;-68
2023/07/19 11:18:39;;;;;;;1.30;0.90;;;29.00;99.90;;;;;;8267868;28;20210;-67
2023/07/19 11:22:40;;;;;;;2.70;1.35;;;28.30;99.90;;;;;;8282417;28;20183;-65
2023/07/19 11:26:56;;;;;;;3.38;1.50;;;27.90;99.90;;;;;;8268887;28;20246;-67
2023/07/19 11:30:57;;;;;;;3.47;1.30;;;27.80;99.90;;;;;;8272276;28;20191;-71
2023/07/19 11:35:01;;;;;;;3.63;1.20;;;27.50;99.90;;;;;;8268642;28;20215;-66
2023/07/19 11:39:03;;;;;;;3.50;1.30;;;27.30;99.90;;;;;;8268015;28;20297;-67
2023/07/19 11:43:04;;;;;;;3.25;1.35;;;27.60;99.90;;;;;;8269004;28;20191;-66
2023/07/19 11:47:05;;;;;;;1.15;0.85;;;27.60;99.90;;;;;;8266121;28;20360;-66
2023/07/19 11:51:07;;;;;;;1.55;1.30;;;27.60;99.90;;;;;;8270870;28;20187;-67
2023/07/19 11:55:11;;;;;;;2.25;1.10;;;27.70;99.90;;;;;;8267697;28;20199;-67
2023/07/19 11:59:12;;;;;;;3.15;1.40;;;28.20;99.90;;;;;;8274857;28;20239;-65
2023/07/19 12:03:17;;;;;;;1.55;1.13;;;28.80;99.90;;;;;;8269257;28;20269;-66
2023/07/19 12:07:18;;;;;;;4.43;1.45;;;29.10;99.90;;;;;;8281024;28;20207;-64
2023/07/19 12:11:19;;;;;;;1.58;1.13;;;29.30;99.90;;;;;;8270921;28;20257;-66
2023/07/19 12:15:21;;;;;;;3.50;1.48;;;29.90;99.90;;;;;;8262192;28;20245;-65
2023/07/19 12:19:24;;;;;;;2.05;1.02;;;29.80;99.90;;;;;;8266912;28;20240;-63
2023/07/19 12:23:25;;;;;;;3.72;1.30;;;28.80;99.90;;;;;;8261359;28;20187;-64
2023/07/19 12:27:26;;;;;;;1.80;1.17;;;28.60;99.90;;;;;;8268279;28;20194;-65
2023/07/19 12:31:28;;;;;;;2.00;1.30;;;28.50;99.90;;;;;;8263434;28;20192;-64
2023/07/19 12:35:29;;;;;;;2.88;1.55;;;28.30;99.90;;;;;;8264951;28;20199;-65
2023/07/19 12:39:32;;;;;;;4.20;1.40;;;28.80;99.90;;;;;;8271529;28;20274;-65
2023/07/19 12:43:34;;;;;;;2.05;1.50;;;29.10;99.90;;;;;;8265875;28;20179;-67
2023/07/19 12:47:34;;;;;;;4.38;1.60;;;28.90;99.90;;;;;;8272702;28;20255;-65
2023/07/19 12:51:35;;;;;;;1.90;1.50;;;28.60;99.90;;;;;;8268055;28;20286;-64
2023/07/19 12:55:36;;;;;;;3.95;1.60;;;28.70;99.90;;;;;;8265543;28;20191;-64
2023/07/19 12:59:41;;;;;;;1.83;1.48;;;29.00;99.90;;;;;;8263484;28;20211;-66
2023/07/19 13:03:41;;;;;;;3.88;1.83;;;29.10;99.90;;;;;;8252040;28;20200;-66
2023/07/19 13:07:42;;;;;;;3.30;1.65;;;29.20;99.90;;;;;;8253804;28;20253;-64
2023/07/19 13:11:44;;;;;;;4.93;1.52;;;29.20;99.90;;;;;;8264102;28;20226;-65
2023/07/19 13:15:45;;;;;;;2.08;1.25;;;28.40;99.90;;;;;;8262819;28;20226;-65
2023/07/19 13:19:46;;;;;;;2.97;1.70;;;28.20;99.90;;;;;;8271302;28;20215;-64
2023/07/19 13:23:47;;;;;;;3.00;1.50;;;28.50;99.90;;;;;;8266566;28;20183;-66
2023/07/19 13:27:48;;;;;;;3.88;1.70;;;28.30;99.90;;;;;;8272202;28;20191;-66
2023/07/19 13:31:49;;;;;;;3.22;1.80;;;28.40;99.90;;;;;;8288197;28;20195;-67
2023/07/19 13:35:50;;;;;;;3.08;1.55;;;28.50;99.90;;;;;;8278435;28;20184;-65
2023/07/19 13:39:51;;;;;;;3.30;1.55;;;28.80;99.90;;;;;;8273972;28;20221;-64
2023/07/19 13:43:54;;;;;;;4.40;1.55;;;28.70;99.90;;;;;;8273312;28;20183;-65
2023/07/19 13:47:55;;;;;;;2.80;1.70;;;28.60;99.90;;;;;;8268822;28;20207;-65
2023/07/19 13:52:00;;;;;;;2.45;1.50;;;28.20;99.90;;;;;;8268899;28;20191;-66
2023/07/19 13:56:01;;;;;;;5.60;1.60;;;28.10;99.90;;;;;;8266218;28;20221;-64
2023/07/19 14:00:02;;;;;;;5.53;2.13;;;28.00;99.90;;;;;;8269515;28;20238;-65
2023/07/19 14:04:07;;;;;;;2.15;1.50;;;27.90;99.90;;;;;;8267809;28;20210;-65
2023/07/19 14:08:08;;;;;;;1.90;1.50;;;28.10;99.90;;;;;;8268642;28;20192;-64
2023/07/19 14:12:09;;;;;;;2.90;1.70;;;28.40;99.90;;;;;;8266768;28;20222;-66
2023/07/19 14:16:11;;;;;;;1.92;1.40;;;28.30;99.90;;;;;;8270197;28;20252;-64
2023/07/19 14:20:12;;;;;;;2.28;1.42;;;27.90;99.90;;;;;;8268961;28;20296;-67
2023/07/19 14:24:13;;;;;;;2.53;2.00;;;27.80;99.90;;;;;;8267762;28;20186;-66
2023/07/19 14:28:15;;;;;;;2.92;1.80;;;27.70;99.90;;;;;;8271668;28;20222;-65
2023/07/19 14:32:16;;;;;;;7.88;1.98;;;27.40;99.90;;;;;;8248925;28;20195;-66
2023/07/19 14:36:17;;;;;;;3.45;1.50;;;27.40;99.90;;;;;;8272395;28;20198;-66
2023/07/19 14:40:18;;;;;;;2.72;1.27;;;27.50;99.90;;;;;;8275440;28;20241;-66
2023/07/19 14:44:23;;;;;;;3.65;1.70;;;27.40;99.90;;;;;;8267713;28;20252;-67
2023/07/19 14:48:25;;;;;;;5.07;1.75;;;27.30;99.90;;;;;;8285611;28;20216;-65
2023/07/19 14:52:26;;;;;;;2.75;1.83;;;27.10;99.90;;;;;;8270923;28;20307;-65
2023/07/19 14:56:28;;;;;;;2.60;2.23;;;26.90;99.90;;;;;;8269294;28;20183;-64
2023/07/19 15:00:29;;;;;;;3.93;2.10;;;26.70;99.90;;;;;;8288675;28;20187;-66
2023/07/19 15:04:30;;;;;;;2.87;2.20;;;26.80;99.90;;;;;;8262026;28;20228;-67
2023/07/19 15:08:33;;;;;;;6.40;2.50;;;27.00;99.90;;;;;;8272264;28;20191;-67
2023/07/19 15:12:34;;;;;;;3.53;2.25;;;27.00;99.90;;;;;;8263103;28;20223;-66
2023/07/19 15:16:35;;;;;;;3.08;2.00;;;27.30;99.90;;;;;;8265994;28;20191;-65
2023/07/19 15:20:36;;;;;;;4.45;1.80;;;27.40;99.90;;;;;;8261230;28;20270;-65
2023/07/19 15:24:37;;;;;;;4.68;2.17;;;27.40;99.90;;;;;;8263120;28;20187;-65
2023/07/19 15:28:37;;;;;;;4.38;1.75;;;27.30;99.90;;;;;;8263544;28;20213;-66
2023/07/19 15:32:39;;;;;;;3.77;2.00;;;27.50;99.90;;;;;;8265492;28;20187;-65
2023/07/19 15:36:40;;;;;;;3.53;2.00;;;27.40;99.90;;;;;;8268085;28;20195;-66
2023/07/19 15:40:41;;;;;;;4.15;1.73;;;27.50;99.90;;;;;;8263958;28;20214;-66
2023/07/19 15:44:42;;;;;;;3.78;2.00;;;27.80;99.90;;;;;;8266620;28;20195;-66
2023/07/19 15:48:43;;;;;;;3.33;1.70;;;27.80;99.90;;;;;;8269217;28;20187;-65
2023/07/19 15:52:46;;;;;;;4.32;1.95;;;27.30;99.90;;;;;;8267368;28;20191;-68
2023/07/19 15:56:47;;;;;;;3.63;1.90;;;27.30;99.90;;;;;;8268024;28;20299;-65
2023/07/19 16:00:48;;;;;;;3.40;1.77;;;27.30;99.90;;;;;;8269735;28;20191;-66
2023/07/19 16:04:48;;;;;;;4.50;2.17;;;27.20;99.90;;;;;;8263265;28;20234;-65
2023/07/19 16:08:49;;;;;;;4.23;2.27;;;27.20;99.90;;;;;;8268604;28;20199;-64
2023/07/19 16:12:53;;;;;;;3.77;2.30;;;27.00;99.90;;;;;;8268869;28;20183;-64
2023/07/19 16:16:54;;;;;;;4.73;1.97;;;26.60;99.90;;;;;;8267851;28;20198;-67
2023/07/19 16:20:56;;;;;;;2.63;1.90;;;26.30;99.90;;;;;;8273457;28;20184;-68
2023/07/19 16:24:58;;;;;;;2.47;1.90;;;26.30;99.90;;;;;;8258221;28;20230;-65
2023/07/19 16:28:59;;;;;;;3.03;2.00;;;26.40;99.90;;;;;;8275602;28;20195;-65
2023/07/19 16:33:00;;;;;;;4.47;1.83;;;26.50;99.90;;;;;;8265661;28;20218;-66
2023/07/19 16:37:02;;;;;;;4.00;2.00;;;26.10;99.90;;;;;;8263877;28;20218;-65
2023/07/19 16:41:03;;;;;;;2.57;1.90;;;25.90;99.90;;;;;;8268472;28;20182;-67
2023/07/19 16:45:06;;;;;;;6.07;2.00;;;25.70;99.90;;;;;;8262670;28;20187;-65
2023/07/19 16:49:07;;;;;;;5.27;2.33;;;25.90;99.90;;;;;;8263990;28;20191;-67
2023/07/19 16:53:12;;;;;;;2.17;1.60;;;26.00;99.90;;;;;;8258543;28;20206;-65
2023/07/19 16:57:13;;;;;;;2.63;2.00;;;26.00;99.90;;;;;;8262114;28;20215;-67
2023/07/19 17:01:14;;;;;;;3.97;2.40;;;26.00;99.90;;;;;;8262348;28;20186;-65
2023/07/19 17:05:16;;;;;;;3.37;2.43;;;25.90;99.90;;;;;;8254666;28;20215;-63
2023/07/19 17:09:23;;;;;;;2.17;1.53;;;25.80;99.90;;;;;;8263787;28;20188;-62
2023/07/19 17:13:24;;;;;;;4.63;1.63;;;25.70;99.90;;;;;;8255096;28;20199;-62
2023/07/19 17:17:25;;;;;;;3.63;2.00;;;25.40;99.90;;;;;;8263939;28;20215;-63
2023/07/19 17:21:27;;;;;;;4.20;2.10;;;25.20;99.90;;;;;;8264000;28;20187;-66
2023/07/19 17:25:28;;;;;;;4.13;1.93;;;25.00;99.90;;;;;;8267156;28;20182;-67
2023/07/19 17:29:28;;;;;;;3.33;2.00;;;24.80;99.90;;;;;;8274308;28;20194;-69
2023/07/19 17:33:29;;;;;;;5.67;1.67;;;24.70;99.90;;;;;;8271032;28;20191;-71
2023/07/19 17:37:33;;;;;;;3.87;2.27;;;24.70;99.90;;;;;;8269636;28;20290;-70
2023/07/19 17:41:37;;;;;;;3.00;2.10;;;24.70;99.90;;;;;;8271672;28;20206;-70
2023/07/19 17:45:38;;;;;;;3.40;1.90;;;24.60;99.90;;;;;;8269184;28;20180;-70
2023/07/19 17:49:39;;;;;;;5.60;1.90;;;24.40;99.90;;;;;;8270789;28;20183;-67
2023/07/19 17:53:40;;;;;;;1.73;1.53;;;24.20;99.90;;;;;;8269825;28;20222;-68
2023/07/19 17:57:41;;;;;;;2.43;1.53;;;24.00;99.90;;;;;;8265417;28;20203;-68
2023/07/19 18:01:43;;;;;;;2.30;1.53;;;23.90;99.90;;;;;;8278543;28;20214;-68
2023/07/19 18:05:44;;;;;;;3.20;1.60;;;23.90;99.90;;;;;;8276060;28;20238;-70
2023/07/19 18:09:45;;;;;;;3.93;1.60;;;23.80;99.90;;;;;;8277030;28;20183;-68
2023/07/19 18:13:46;;;;;;;3.17;1.60;;;23.80;99.90;;;;;;8276031;28;20279;-69
2023/07/19 18:17:47;;;;;;;3.10;1.47;;;23.60;99.90;;;;;;8278915;28;20227;-69
2023/07/19 18:21:49;;;;;;;5.50;1.63;;;23.50;99.90;;;;;;8277511;28;20187;-70
2023/07/19 18:25:52;;;;;;;4.37;1.80;;;23.30;99.90;;;;;;8293576;28;20263;-69
2023/07/19 18:29:53;;;;;;;1.87;1.47;;;23.20;99.90;;;;;;8280266;28;20187;-70
2023/07/19 18:33:54;;;;;;;3.63;1.40;;;23.10;99.90;;;;;;8280637;28;20238;-68
2023/07/19 18:37:55;;;;;;;4.30;1.40;;;23.10;99.90;;;;;;8279559;28;20207;-68
2023/07/19 18:41:56;;;;;;;3.07;1.50;;;23.00;99.90;;;;;;8272168;28;20202;-70
2023/07/19 18:45:58;;;;;;;2.27;1.30;;;23.00;99.90;;;;;;8273829;28;20276;-68
2023/07/19 18:50:05;;;;;;;4.80;1.67;;;22.90;99.90;;;;;;8270666;28;20222;-68
2023/07/19 18:54:06;;;;;;;3.50;2.30;;;22.80;99.90;;;;;;8275647;28;20202;-70
2023/07/19 18:58:07;;;;;;;3.37;2.40;;;22.70;99.90;;;;;;8274174;28;20212;-69
2023/07/19 19:02:08;;;;;;;4.00;2.47;;;22.60;99.90;;;;;;8289170;28;20274;-69
2023/07/19 19:06:09;;;;;;;4.53;2.70;;;22.60;99.90;;;;;;8276231;28;20222;-66
2023/07/19 19:10:10;;;;;;;5.47;2.93;;;22.40;99.90;;;;;;8274549;28;20275;-70
2023/07/19 19:14:11;;;;;;;4.53;2.87;;;22.40;99.90;;;;;;8272416;28;20196;-69
2023/07/19 19:18:12;;;;;;;4.90;2.80;;;22.30;99.90;;;;;;8276996;28;20215;-70
2023/07/19 19:22:14;;;;;;;3.43;2.13;;;22.20;99.90;;;;;;8272085;28;20194;-69
2023/07/19 19:26:15;;;;;;;4.90;2.33;;;22.20;99.90;;;;;;8272055;28;20194;-69
2023/07/19 19:30:16;;;;;;;2.50;1.70;;;22.10;99.90;;;;;;8276382;28;20191;-70
2023/07/19 19:34:18;;;;;;;2.30;1.50;;;22.00;99.90;;;;;;8278078;28;20187;-68
2023/07/19 19:38:25;;;;;;;2.57;1.47;;;22.00;99.90;;;;;;8278407;28;20251;-68
2023/07/19 19:42:28;;;;;;;2.97;1.60;;;21.90;99.90;;;;;;8276396;28;20184;-68
2023/07/19 19:46:30;;;;;;;1.83;1.47;;;21.90;99.90;;;;;;8269888;28;20190;-68
2023/07/19 19:50:32;;;;;;;5.03;1.50;;;21.80;99.90;;;;;;8266276;28;20201;-71
2023/07/19 19:54:33;;;;;;;4.00;1.73;;;21.80;99.90;;;;;;8276081;28;20187;-71
2023/07/19 19:58:38;;;;;;;3.30;1.43;;;21.60;99.90;;;;;;8273892;28;20264;-71
2023/07/19 20:02:39;;;;;;;2.73;1.87;;;21.20;99.90;;;;;;8261184;28;20195;-73
2023/07/19 20:06:40;;;;;;;1.93;1.33;;;21.10;99.90;;;;;;8266269;28;20200;-71
2023/07/19 20:10:44;;;;;;;1.80;1.20;;;21.00;99.90;;;;;;8273116;28;20214;-71
2023/07/19 20:14:45;;;;;;;1.53;1.40;;;20.90;99.90;;;;;;8275534;28;20195;-70
2023/07/19 20:18:46;;;;;;;1.87;1.40;;;20.70;99.90;;;;;;8273713;28;20223;-70
2023/07/19 20:22:47;;;;;;;2.43;1.50;;;20.60;99.90;;;;;;8274398;28;20203;-70
2023/07/19 20:26:48;;;;;;;2.40;1.23;;;20.50;99.90;;;;;;8293794;28;20195;-69
2023/07/19 20:30:49;;;;;;;3.83;1.60;;;20.30;99.90;;;;;;8274981;28;20272;-70
2023/07/19 20:34:50;;;;;;;3.30;1.33;;;20.20;99.90;;;;;;8271549;28;20191;-70
2023/07/19 20:38:51;;;;;;;3.77;1.63;;;20.00;99.90;;;;;;8292132;28;20258;-69
2023/07/19 20:42:52;;;;;;;2.37;1.50;;;19.90;99.90;;;;;;8271692;28;20190;-65
2023/07/19 20:46:53;;;;;;;3.87;1.60;;;19.80;99.90;;;;;;8272654;28;20193;-65
2023/07/19 20:50:54;;;;;;;1.77;1.17;;;19.70;99.90;;;;;;8264434;28;20322;-65
2023/07/19 20:54:55;;;;;;;1.90;1.37;;;19.80;99.90;;;;;;8266272;28;20195;-66
2023/07/19 20:58:56;;;;;;;2.43;1.00;;;19.90;99.90;;;;;;8277601;28;20215;-66